Time;durP1;ratioP1;P1;durP2;ratioP2;P2;SDS_P1;SDS_P2;PMS_P1;PMS_P2;Temp;Humidity;BMP_temperature;BMP_pressure;BME280_temperature;BME280_humidity;BME280_pressure;Samples;Min_cycle;Max_cycle;Signal;HPM_P1;HPM_P2
2023/12/02 00:01:56;;;;;;;0.00;0.00;;;;;;;5.72;100.00;97139.38;5091720;28;20032;-48
2023/12/02 00:04:22;;;;;;;0.00;0.00;;;;;;;5.70;100.00;97146.59;5091658;28;20099;-48
2023/12/02 00:06:47;;;;;;;0.03;0.03;;;;;;;5.80;100.00;97143.53;5091686;28;20024;-48
2023/12/02 00:09:13;;;;;;;0.00;0.00;;;;;;;5.86;100.00;97149.72;5091715;28;20486;-48
2023/12/02 00:11:39;;;;;;;0.08;0.08;;;;;;;5.84;100.00;97147.31;5091916;28;20405;-48
2023/12/02 00:14:05;;;;;;;0.00;0.00;;;;;;;5.90;100.00;97151.69;5090355;28;20036;-48
2023/12/02 00:16:30;;;;;;;0.00;0.00;;;;;;;5.92;100.00;97148.91;5090306;28;20485;-48
2023/12/02 00:18:56;;;;;;;0.00;0.00;;;;;;;5.83;100.00;97158.72;5091648;28;20025;-48
2023/12/02 00:21:22;;;;;;;0.00;0.00;;;;;;;5.80;100.00;97162.56;5092934;28;20031;-48
2023/12/02 00:23:48;;;;;;;0.40;0.40;;;;;;;5.74;100.00;97160.00;5095500;28;20052;-48
2023/12/02 00:26:14;;;;;;;0.45;0.45;;;;;;;5.67;100.00;97165.19;5095460;28;20024;-48
2023/12/02 00:28:39;;;;;;;0.40;0.40;;;;;;;5.64;100.00;97164.84;5093910;28;20543;-49
2023/12/02 00:31:05;;;;;;;0.00;0.00;;;;;;;5.65;100.00;97169.03;5095427;28;20036;-49
2023/12/02 00:33:31;;;;;;;0.10;0.10;;;;;;;5.72;100.00;97173.19;5095334;28;20067;-48
2023/12/02 00:35:57;;;;;;;0.10;0.10;;;;;;;5.71;100.00;97174.19;5095248;28;20510;-48
2023/12/02 00:38:23;;;;;;;0.00;0.00;;;;;;;5.59;100.00;97166.25;5095201;28;20032;-49
2023/12/02 00:40:48;;;;;;;3.83;3.38;;;;;;;5.55;100.00;97179.84;5095192;28;20025;-49
2023/12/02 00:43:14;;;;;;;3.17;2.92;;;;;;;5.49;100.00;97178.09;5093738;28;20474;-48
2023/12/02 00:45:40;;;;;;;1.35;1.35;;;;;;;5.51;100.00;97170.88;5095054;28;20043;-49
2023/12/02 00:48:06;;;;;;;0.57;0.57;;;;;;;5.54;100.00;97191.28;5095031;28;20145;-49
2023/12/02 00:50:31;;;;;;;0.63;0.63;;;;;;;5.52;100.00;97186.28;5076866;28;20490;-49
2023/12/02 00:52:57;;;;;;;0.10;0.10;;;;;;;5.66;100.00;97197.44;5094918;28;20024;-48
2023/12/02 00:55:23;;;;;;;0.28;0.28;;;;;;;5.67;100.00;97204.25;5094881;28;20048;-49
2023/12/02 00:57:49;;;;;;;0.10;0.10;;;;;;;5.56;100.00;97204.91;5093544;28;20541;-49
2023/12/02 01:00:15;;;;;;;1.55;1.45;;;;;;;5.56;100.00;97213.50;5094761;28;20049;-49
2023/12/02 01:02:44;;;;;;;0.00;0.00;;;;;;;5.54;100.00;97212.91;5094736;28;20054;-49
2023/12/02 01:05:09;;;;;;;0.00;0.00;;;;;;;5.66;100.00;97226.09;5093346;28;20052;-48
2023/12/02 01:07:35;;;;;;;1.88;1.77;;;;;;;5.50;100.00;97221.31;5094963;28;20108;-48
2023/12/02 01:10:03;;;;;;;0.00;0.00;;;;;;;5.37;100.00;97222.13;5093384;28;20563;-48
2023/12/02 01:12:29;;;;;;;0.10;0.10;;;;;;;5.27;100.00;97222.56;5094559;28;20109;-48
2023/12/02 01:14:55;;;;;;;0.55;0.32;;;;;;;5.28;100.00;97226.75;5094485;28;20058;-48
2023/12/02 01:17:20;;;;;;;0.10;0.10;;;;;;;5.29;100.00;97233.56;5094478;28;20032;-48
2023/12/02 01:19:46;;;;;;;0.00;0.00;;;;;;;5.31;100.00;97239.38;5094481;28;20372;-49
2023/12/02 01:22:12;;;;;;;0.10;0.10;;;;;;;5.31;100.00;97235.94;5094380;28;20024;-49
2023/12/02 01:24:38;;;;;;;0.10;0.10;;;;;;;5.21;100.00;97241.56;5094301;28;20046;-48
2023/12/02 01:27:04;;;;;;;0.22;0.22;;;;;;;5.13;100.00;97241.75;5094244;28;20024;-48
2023/12/02 01:29:30;;;;;;;0.08;0.08;;;;;;;5.17;100.00;97232.56;5094012;28;20061;-48
2023/12/02 01:31:55;;;;;;;0.10;0.10;;;;;;;5.24;100.00;97245.59;5093087;28;20020;-48
2023/12/02 01:34:21;;;;;;;0.00;0.00;;;;;;;5.30;100.00;97252.56;5094170;28;20028;-48
2023/12/02 01:36:46;;;;;;;0.00;0.00;;;;;;;5.32;100.00;97253.97;5094047;28;20020;-48
2023/12/02 01:39:13;;;;;;;0.00;0.00;;;;;;;5.23;100.00;97252.56;5092819;28;20512;-48
2023/12/02 01:41:39;;;;;;;2.65;1.30;;;;;;;5.02;100.00;97266.59;5094096;28;20040;-48
2023/12/02 01:44:05;;;;;;;0.00;0.00;;;;;;;4.85;100.00;97266.19;5093911;28;20096;-47
2023/12/02 01:46:31;;;;;;;0.00;0.00;;;;;;;4.81;100.00;97280.56;5093963;28;20849;-48
2023/12/02 01:49:00;;;;;;;0.00;0.00;;;;;;;4.88;100.00;97283.97;5093968;28;20482;-47
2023/12/02 01:51:29;;;;;;;0.00;0.00;;;;;;;5.04;100.00;97274.97;5093799;28;20024;-47
2023/12/02 01:53:55;;;;;;;0.00;0.00;;;;;;;5.09;100.00;97288.19;5093798;28;20047;-48
2023/12/02 01:56:21;;;;;;;0.00;0.00;;;;;;;5.28;100.00;97285.78;5092343;28;20077;-47
2023/12/02 01:58:47;;;;;;;0.00;0.00;;;;;;;5.41;100.00;97290.97;5093715;28;20027;-48
2023/12/02 02:01:13;;;;;;;0.22;0.22;;;;;;;5.42;100.00;97294.38;5093830;28;20020;-48
2023/12/02 02:03:39;;;;;;;1.75;1.63;;;;;;;5.40;100.00;97290.19;5092139;28;20547;-47
2023/12/02 02:06:10;;;;;;;0.10;0.10;;;;;;;5.29;100.00;97303.81;5093518;28;20067;-48
2023/12/02 02:08:36;;;;;;;0.00;0.00;;;;;;;5.27;100.00;97310.19;5093508;28;20043;-47
2023/12/02 02:11:02;;;;;;;0.10;0.10;;;;;;;5.29;100.00;97309.00;5093438;28;20044;-47
2023/12/02 02:13:27;;;;;;;0.00;0.00;;;;;;;5.33;100.00;97305.00;5093393;28;20059;-47
2023/12/02 02:15:54;;;;;;;0.45;0.45;;;;;;;5.39;100.00;97314.59;5091991;28;20067;-47
2023/12/02 02:18:20;;;;;;;0.10;0.10;;;;;;;5.38;100.00;97318.19;5091948;28;20020;-47
2023/12/02 02:20:51;;;;;;;0.10;0.10;;;;;;;5.52;100.00;97313.78;5093234;28;20099;-47
2023/12/02 02:23:23;;;;;;;0.30;0.30;;;;;;;5.53;100.00;97324.97;5091849;28;20038;-47
2023/12/02 02:25:50;;;;;;;0.20;0.20;;;;;;;5.38;100.00;97336.41;5093111;28;20027;-47
2023/12/02 02:28:24;;;;;;;0.10;0.10;;;;;;;5.27;100.00;97334.41;5091792;28;20067;-47
2023/12/02 02:30:50;;;;;;;0.00;0.00;;;;;;;5.27;100.00;97336.19;5093079;28;20024;-47
2023/12/02 02:33:17;;;;;;;0.22;0.22;;;;;;;5.22;100.00;97336.81;5091685;28;20034;-46
2023/12/02 02:35:43;;;;;;;0.80;0.80;;;;;;;5.25;100.00;97346.81;5092964;28;20027;-47
2023/12/02 02:38:09;;;;;;;0.10;0.10;;;;;;;5.42;100.00;97346.41;5091575;28;20032;-47
2023/12/02 02:40:35;;;;;;;0.03;0.03;;;;;;;5.50;100.00;97346.22;5091569;28;20078;-47
2023/12/02 02:43:00;;;;;;;0.73;0.73;;;;;;;5.47;100.00;97339.59;5091188;28;20024;-47
2023/12/02 02:45:26;;;;;;;0.45;0.45;;;;;;;5.52;100.00;97347.63;5091470;28;20505;-47
2023/12/02 02:47:52;;;;;;;0.10;0.10;;;;;;;5.52;100.00;97349.41;5093059;28;20031;-47
2023/12/02 02:50:18;;;;;;;0.20;0.20;;;;;;;5.36;100.00;97356.63;5092680;28;20382;-47
2023/12/02 02:52:44;;;;;;;0.10;0.10;;;;;;;5.35;100.00;97359.41;5091317;28;20031;-48
2023/12/02 02:55:10;;;;;;;0.00;0.00;;;;;;;5.36;100.00;97363.63;5092540;28;20027;-47
2023/12/02 02:57:35;;;;;;;0.45;0.45;;;;;;;5.39;100.00;97371.84;5092572;28;20444;-47
2023/12/02 03:00:04;;;;;;;0.08;0.08;;;;;;;5.33;100.00;97357.03;5092480;28;20478;-47
2023/12/02 03:02:30;;;;;;;0.10;0.10;;;;;;;5.25;100.00;97366.81;5092365;28;20031;-48
2023/12/02 03:04:56;;;;;;;0.05;0.05;;;;;;;5.21;100.00;97371.59;5091069;28;20024;-48
2023/12/02 03:07:21;;;;;;;0.95;0.95;;;;;;;5.13;100.00;97377.00;5091045;28;20097;-47
2023/12/02 03:09:47;;;;;;;0.00;0.00;;;;;;;5.22;100.00;97381.00;5092444;28;20081;-48
2023/12/02 03:12:13;;;;;;;0.68;0.68;;;;;;;5.19;100.00;97384.81;5090982;28;20024;-48
2023/12/02 03:14:38;;;;;;;0.15;0.15;;;;;;;5.32;100.00;97396.25;5090986;28;20032;-47
2023/12/02 03:17:05;;;;;;;0.00;0.00;;;;;;;5.42;100.00;97393.25;5092247;28;20498;-48
2023/12/02 03:19:30;;;;;;;0.00;0.00;;;;;;;5.44;100.00;97401.66;5092503;28;20031;-48
2023/12/02 03:21:56;;;;;;;0.03;0.03;;;;;;;5.42;100.00;97406.25;5092176;28;20024;-48
2023/12/02 03:24:22;;;;;;;0.00;0.00;;;;;;;5.39;100.00;97407.44;5092085;28;20024;-48
2023/12/02 03:26:47;;;;;;;0.73;0.73;;;;;;;5.33;100.00;97403.84;5090771;28;20093;-48
2023/12/02 03:29:13;;;;;;;0.00;0.00;;;;;;;5.17;100.00;97412.81;5090513;28;20502;-47
2023/12/02 03:31:39;;;;;;;0.00;0.00;;;;;;;5.08;100.00;97421.00;5092055;28;20099;-48
2023/12/02 03:34:04;;;;;;;0.10;0.10;;;;;;;5.07;100.00;97424.59;5092034;28;20042;-47
2023/12/02 03:36:30;;;;;;;0.35;0.35;;;;;;;5.18;100.00;97427.41;5092292;28;20023;-48
2023/12/02 03:38:57;;;;;;;0.10;0.10;;;;;;;5.24;100.00;97422.44;5092222;28;20477;-48
2023/12/02 03:41:22;;;;;;;0.10;0.10;;;;;;;5.30;100.00;97429.47;5091935;28;20042;-48
2023/12/02 03:43:48;;;;;;;0.00;0.00;;;;;;;5.33;100.00;97436.84;5091861;28;20541;-48
2023/12/02 03:46:14;;;;;;;0.10;0.10;;;;;;;5.28;100.00;97441.84;5091879;28;20020;-47
2023/12/02 03:48:40;;;;;;;0.17;0.17;;;;;;;5.23;100.00;97439.81;5091893;28;20510;-47
2023/12/02 03:51:06;;;;;;;0.03;0.03;;;;;;;5.26;100.00;97446.44;5091826;28;20098;-48
2023/12/02 03:53:34;;;;;;;0.20;0.20;;;;;;;5.11;100.00;97450.03;5091856;28;20085;-48
2023/12/02 03:56:01;;;;;;;0.10;0.10;;;;;;;5.12;100.00;97459.41;5093994;28;20055;-48
2023/12/02 03:58:27;;;;;;;0.05;0.05;;;;;;;5.05;100.00;97469.00;5096028;28;20027;-48
2023/12/02 04:00:55;;;;;;;0.03;0.03;;;;;;;5.01;100.00;97460.00;5095888;28;20031;-48
2023/12/02 04:03:21;;;;;;;0.20;0.20;;;;;;;4.86;100.00;97478.31;5095841;28;20020;-48
2023/12/02 04:05:47;;;;;;;0.00;0.00;;;;;;;4.72;100.00;97477.44;5095852;28;20024;-48
2023/12/02 04:08:13;;;;;;;0.10;0.10;;;;;;;4.69;100.00;97479.63;5095867;28;20028;-48
2023/12/02 04:10:38;;;;;;;0.30;0.30;;;;;;;4.66;100.00;97486.00;5095784;28;20073;-48
2023/12/02 04:13:08;;;;;;;0.00;0.00;;;;;;;4.65;100.00;97489.63;5094388;28;20059;-48
2023/12/02 04:15:35;;;;;;;0.05;0.05;;;;;;;4.67;100.00;97492.00;5095649;28;20053;-48
2023/12/02 04:18:01;;;;;;;1.40;0.82;;;;;;;4.63;100.00;97495.97;5095710;28;20024;-47
2023/12/02 04:20:26;;;;;;;0.50;0.50;;;;;;;4.67;100.00;97499.81;5095563;28;20019;-47
2023/12/02 04:22:53;;;;;;;0.00;0.00;;;;;;;4.61;100.00;97501.41;5094134;28;20409;-47
2023/12/02 04:25:19;;;;;;;0.22;0.22;;;;;;;4.73;100.00;97512.84;5095396;28;20102;-47
2023/12/02 04:27:46;;;;;;;0.08;0.08;;;;;;;4.77;100.00;97503.69;5095448;28;20435;-46
2023/12/02 04:30:12;;;;;;;1.38;1.23;;;;;;;4.89;100.00;97513.50;5095115;28;20161;-47
2023/12/02 04:32:38;;;;;;;0.05;0.05;;;;;;;5.00;100.00;97508.56;5095396;28;20024;-47
2023/12/02 04:35:05;;;;;;;0.13;0.13;;;;;;;5.00;100.00;97508.56;5095286;28;20036;-46
2023/12/02 04:37:31;;;;;;;0.35;0.35;;;;;;;4.87;100.00;97524.13;5095284;28;20101;-47
2023/12/02 04:39:57;;;;;;;0.00;0.00;;;;;;;4.82;100.00;97533.50;5095250;28;20507;-47
2023/12/02 04:42:23;;;;;;;0.00;0.00;;;;;;;4.82;100.00;97531.69;5093872;28;20105;-46
2023/12/02 04:44:49;;;;;;;0.00;0.00;;;;;;;4.80;100.00;97533.66;5095015;28;20028;-47
2023/12/02 04:47:16;;;;;;;1.98;1.88;;;;;;;4.83;100.00;97530.72;5093693;28;20107;-47
2023/12/02 04:49:41;;;;;;;0.00;0.00;;;;;;;4.85;100.00;97535.69;5095086;28;20104;-47
2023/12/02 04:52:08;;;;;;;0.20;0.20;;;;;;;4.86;100.00;97548.50;5094927;28;20024;-46
2023/12/02 04:54:36;;;;;;;0.00;0.00;;;;;;;4.89;100.00;97550.72;5094904;28;20107;-46
2023/12/02 04:57:02;;;;;;;0.93;0.90;;;;;;;4.98;100.00;97553.97;5094887;28;20039;-46
2023/12/02 04:59:28;;;;;;;0.80;0.57;;;;;;;5.03;100.00;97559.41;5093546;28;20490;-46
2023/12/02 05:01:55;;;;;;;0.85;0.85;;;;;;;5.04;100.00;97561.00;5093498;28;20016;-46
2023/12/02 05:04:20;;;;;;;0.10;0.10;;;;;;;5.13;100.00;97564.22;5094629;28;20020;-47
2023/12/02 05:06:46;;;;;;;0.20;0.20;;;;;;;5.20;100.00;97567.69;5093312;28;20023;-46
2023/12/02 05:09:12;;;;;;;0.10;0.10;;;;;;;5.29;100.00;97573.50;5094690;28;20490;-46
2023/12/02 05:11:38;;;;;;;0.10;0.10;;;;;;;5.14;100.00;97573.66;5093300;28;20035;-47
2023/12/02 05:14:03;;;;;;;0.00;0.00;;;;;;;5.06;100.00;97584.22;5093274;28;20063;-46
2023/12/02 05:16:29;;;;;;;0.10;0.10;;;;;;;5.03;100.00;97594.97;5094563;28;20101;-47
2023/12/02 05:18:55;;;;;;;0.10;0.10;;;;;;;5.09;100.00;97596.81;5094620;28;20484;-46
2023/12/02 05:21:20;;;;;;;0.00;0.00;;;;;;;5.06;100.00;97603.22;5094712;28;20077;-46
2023/12/02 05:23:46;;;;;;;0.08;0.08;;;;;;;5.12;100.00;97609.44;5094351;28;20558;-47
2023/12/02 05:26:12;;;;;;;0.10;0.10;;;;;;;5.36;100.00;97606.38;5094334;28;20032;-47
2023/12/02 05:28:38;;;;;;;0.00;0.00;;;;;;;5.47;100.00;97618.00;5092795;28;20380;-47
2023/12/02 05:31:05;;;;;;;0.03;0.03;;;;;;;5.50;100.00;97622.84;5094344;28;20378;-46
2023/12/02 05:33:30;;;;;;;0.00;0.00;;;;;;;5.31;100.00;97626.97;5093242;28;20501;-47
2023/12/02 05:35:56;;;;;;;0.05;0.05;;;;;;;5.03;100.00;97636.59;5094165;28;20062;-46
2023/12/02 05:38:22;;;;;;;0.00;0.00;;;;;;;5.08;100.00;97639.44;5094166;28;20047;-47
2023/12/02 05:40:47;;;;;;;0.10;0.10;;;;;;;5.05;100.00;97639.81;5094089;28;20035;-47
2023/12/02 05:43:13;;;;;;;0.10;0.10;;;;;;;4.95;100.00;97638.34;5093941;28;20028;-47
2023/12/02 05:45:39;;;;;;;0.00;0.00;;;;;;;4.80;100.00;97653.25;5093980;28;20065;-47
2023/12/02 05:48:05;;;;;;;0.95;0.40;;;;;;;4.75;100.00;97660.81;5092910;28;20036;-47
2023/12/02 05:50:31;;;;;;;0.10;0.10;;;;;;;4.65;100.00;97660.31;5093896;28;20031;-46
2023/12/02 05:52:57;;;;;;;0.20;0.20;;;;;;;4.59;100.00;97667.88;5093895;28;20024;-47
2023/12/02 05:55:22;;;;;;;0.00;0.00;;;;;;;4.59;100.00;97680.06;5092477;28;20057;-46
2023/12/02 05:57:48;;;;;;;0.00;0.00;;;;;;;4.68;100.00;97681.53;5092430;28;20101;-47
2023/12/02 06:00:18;;;;;;;0.00;0.00;;;;;;;4.62;100.00;97687.47;5092410;28;20020;-47
2023/12/02 06:02:44;;;;;;;0.30;0.30;;;;;;;4.54;100.00;97683.22;5092318;28;20069;-46
2023/12/02 06:05:09;;;;;;;3.63;0.85;;;;;;;4.47;100.00;97697.94;5092188;28;20564;-46
2023/12/02 06:07:35;;;;;;;0.10;0.10;;;;;;;4.52;100.00;97702.56;5093598;28;20391;-47
2023/12/02 06:10:01;;;;;;;0.00;0.00;;;;;;;4.60;100.00;97708.44;5093506;28;20490;-46
2023/12/02 06:12:27;;;;;;;1.35;0.65;;;;;;;4.83;100.00;97702.25;5093425;28;20020;-47
2023/12/02 06:14:52;;;;;;;0.15;0.15;;;;;;;4.79;100.00;97712.22;5092071;28;20035;-47
2023/12/02 06:17:18;;;;;;;1.55;1.50;;;;;;;4.56;100.00;97716.81;5091968;28;20032;-46
2023/12/02 06:19:44;;;;;;;0.20;0.20;;;;;;;4.48;100.00;97725.53;5092853;28;20028;-46
2023/12/02 06:22:10;;;;;;;0.10;0.10;;;;;;;4.43;100.00;97735.69;5091924;28;20028;-47
2023/12/02 06:24:35;;;;;;;0.10;0.10;;;;;;;4.49;100.00;97734.13;5093198;28;20035;-47
2023/12/02 06:27:01;;;;;;;0.10;0.10;;;;;;;4.45;100.00;97732.88;5091812;28;20020;-46
2023/12/02 06:29:27;;;;;;;0.10;0.10;;;;;;;4.34;100.00;97742.75;5091532;28;20413;-47
2023/12/02 06:31:53;;;;;;;0.10;0.10;;;;;;;4.34;100.00;97747.97;5092093;28;20023;-47
2023/12/02 06:34:19;;;;;;;0.10;0.10;;;;;;;4.35;100.00;97749.56;5093021;28;20024;-47
2023/12/02 06:36:45;;;;;;;0.10;0.10;;;;;;;4.39;100.00;97750.81;5092965;28;20022;-47
2023/12/02 06:39:12;;;;;;;0.73;0.65;;;;;;;4.49;100.00;97758.31;5093460;28;20078;-47
2023/12/02 06:41:38;;;;;;;0.45;0.45;;;;;;;4.40;100.00;97762.81;5092908;28;20023;-46
2023/12/02 06:44:04;;;;;;;0.10;0.10;;;;;;;4.24;100.00;97760.44;5092772;28;20081;-47
2023/12/02 06:46:30;;;;;;;1.95;1.60;;;;;;;4.17;100.00;97765.56;5093041;28;20099;-47
2023/12/02 06:48:56;;;;;;;0.00;0.00;;;;;;;4.16;100.00;97766.53;5092759;28;20115;-47
2023/12/02 06:51:23;;;;;;;0.10;0.10;;;;;;;4.30;100.00;97772.69;5092678;28;20721;-47
2023/12/02 06:53:49;;;;;;;0.00;0.00;;;;;;;4.49;100.00;97776.50;5092717;28;20398;-47
2023/12/02 06:56:18;;;;;;;0.00;0.00;;;;;;;4.53;100.00;97777.75;5092623;28;20017;-47
2023/12/02 06:58:44;;;;;;;0.25;0.25;;;;;;;4.49;100.00;97781.69;5091270;28;20020;-46
2023/12/02 07:01:10;;;;;;;0.00;0.00;;;;;;;4.43;100.00;97792.81;5092511;28;20023;-46
2023/12/02 07:03:38;;;;;;;0.08;0.08;;;;;;;4.49;100.00;97797.28;5091174;28;20030;-46
2023/12/02 07:06:04;;;;;;;0.10;0.10;;;;;;;4.58;100.00;97803.97;5092333;28;20016;-46
2023/12/02 07:08:30;;;;;;;0.10;0.10;;;;;;;4.45;100.00;97796.06;5092668;28;20043;-46
2023/12/02 07:10:55;;;;;;;0.10;0.10;;;;;;;4.36;100.00;97804.94;5091062;28;20017;-47
2023/12/02 07:13:21;;;;;;;0.00;0.00;;;;;;;4.32;100.00;97809.66;5092336;28;20053;-46
2023/12/02 07:15:47;;;;;;;2.80;1.65;;;;;;;4.26;100.00;97820.00;5092282;28;20394;-46
2023/12/02 07:18:13;;;;;;;0.10;0.10;;;;;;;4.29;100.00;97817.03;5090980;28;20040;-46
2023/12/02 07:20:39;;;;;;;0.17;0.17;;;;;;;4.28;100.00;97825.81;5090901;28;20062;-46
2023/12/02 07:23:04;;;;;;;0.22;0.22;;;;;;;4.29;100.00;97820.44;5090775;28;20024;-46
2023/12/02 07:25:30;;;;;;;0.00;0.00;;;;;;;4.19;100.00;97827.72;5092190;28;20020;-46
2023/12/02 07:27:56;;;;;;;0.10;0.10;;;;;;;4.18;100.00;97829.47;5092121;28;20020;-46
2023/12/02 07:30:21;;;;;;;0.17;0.17;;;;;;;4.14;100.00;97845.59;5089704;28;20063;-46
2023/12/02 07:32:47;;;;;;;0.00;0.00;;;;;;;4.29;100.00;97848.22;5091079;28;20401;-46
2023/12/02 07:35:13;;;;;;;0.90;0.90;;;;;;;4.76;100.00;97841.75;5091979;28;20039;-46
2023/12/02 07:37:38;;;;;;;0.17;0.17;;;;;;;4.93;100.00;97856.13;5090715;28;20020;-47
2023/12/02 07:40:05;;;;;;;0.10;0.10;;;;;;;4.95;100.00;97861.97;5091952;28;20097;-46
2023/12/02 07:42:31;;;;;;;0.00;0.00;;;;;;;4.92;100.00;97874.50;5090659;28;20024;-47
2023/12/02 07:44:56;;;;;;;0.10;0.10;;;;;;;4.88;100.00;97879.28;5091903;28;20397;-47
2023/12/02 07:47:23;;;;;;;0.98;0.98;;;;;;;4.82;100.00;97887.00;5091881;28;20461;-47
2023/12/02 07:49:49;;;;;;;0.43;0.43;;;;;;;4.90;100.00;97889.50;5092112;28;20431;-48
2023/12/02 07:52:15;;;;;;;0.17;0.17;;;;;;;4.92;100.00;97890.13;5091877;28;20024;-47
2023/12/02 07:54:40;;;;;;;0.05;0.05;;;;;;;4.67;100.00;97889.63;5090490;28;20113;-47
2023/12/02 07:57:06;;;;;;;0.03;0.03;;;;;;;4.58;100.00;97900.13;5091801;28;20020;-47
2023/12/02 07:59:32;;;;;;;0.08;0.08;;;;;;;4.34;100.00;97898.59;5092069;28;20490;-47
2023/12/02 08:01:57;;;;;;;0.10;0.10;;;;;;;4.13;100.00;97911.53;5092004;28;20089;-47
2023/12/02 08:04:23;;;;;;;0.10;0.10;;;;;;;3.97;100.00;97922.88;5091682;28;20206;-47
2023/12/02 08:06:49;;;;;;;0.17;0.17;;;;;;;3.86;100.00;97925.88;5091736;28;20562;-47
2023/12/02 08:09:14;;;;;;;0.00;0.00;;;;;;;3.73;100.00;97927.28;5090386;28;20115;-48
2023/12/02 08:11:41;;;;;;;0.10;0.10;;;;;;;3.64;100.00;97933.50;5091607;28;20143;-48
2023/12/02 08:14:07;;;;;;;0.00;0.00;;;;;;;3.54;100.00;97938.97;5090333;28;20051;-48
2023/12/02 08:16:32;;;;;;;0.10;0.10;;;;;;;3.45;100.00;97944.38;5091580;28;20494;-46
2023/12/02 08:18:58;;;;;;;0.15;0.15;;;;;;;3.37;100.00;97945.25;5091620;28;20041;-46
2023/12/02 08:21:24;;;;;;;0.40;0.40;;;;;;;3.39;100.00;97951.06;5091577;28;20020;-45
2023/12/02 08:23:50;;;;;;;1.17;0.65;;;;;;;3.40;100.00;97950.06;5091491;28;20385;-45
2023/12/02 08:26:15;;;;;;;0.00;0.00;;;;;;;3.46;100.00;97958.94;5090217;28;20020;-45
2023/12/02 08:28:43;;;;;;;0.10;0.10;;;;;;;3.68;100.00;97968.53;5091223;28;20062;-45
2023/12/02 08:31:09;;;;;;;0.32;0.32;;;;;;;3.74;100.00;97959.22;5091425;28;20031;-45
2023/12/02 08:33:34;;;;;;;0.00;0.00;;;;;;;3.77;100.00;97969.28;5090187;28;20032;-45
2023/12/02 08:36:00;;;;;;;0.00;0.00;;;;;;;3.83;100.00;97968.56;5091468;28;20103;-45
2023/12/02 08:38:25;;;;;;;0.10;0.10;;;;;;;4.07;100.00;97967.56;5090109;28;20052;-45
2023/12/02 08:40:51;;;;;;;0.10;0.10;;;;;;;4.29;100.00;97970.28;5091529;28;20012;-45
2023/12/02 08:43:17;;;;;;;0.20;0.20;;;;;;;4.36;100.00;97968.56;5094072;28;20032;-45
2023/12/02 08:45:43;;;;;;;0.10;0.10;;;;;;;4.43;100.00;97979.88;5093840;28;20084;-44
2023/12/02 08:48:08;;;;;;;0.28;0.28;;;;;;;4.35;100.00;97977.38;5093825;28;20382;-44
2023/12/02 08:50:34;;;;;;;0.25;0.25;;;;;;;4.10;100.00;97982.78;5093705;28;20020;-45
2023/12/02 08:53:00;;;;;;;0.00;0.00;;;;;;;3.98;100.00;97994.56;5095018;28;20477;-45
2023/12/02 08:55:25;;;;;;;0.85;0.85;;;;;;;4.05;100.00;97994.69;5095249;28;20090;-45
2023/12/02 08:57:51;;;;;;;0.10;0.10;;;;;;;4.25;100.00;97995.78;5094913;28;20028;-44
2023/12/02 09:00:17;;;;;;;0.43;0.43;;;;;;;4.24;100.00;98004.56;5093553;28;20047;-45
2023/12/02 09:02:43;;;;;;;0.00;0.00;;;;;;;4.26;100.00;98012.19;5077033;28;20036;-45
2023/12/02 09:05:08;;;;;;;0.00;0.00;;;;;;;4.31;100.00;98008.06;5093369;28;20432;-45
2023/12/02 09:07:34;;;;;;;0.00;0.00;;;;;;;4.32;100.00;98019.25;5093461;28;20076;-46
2023/12/02 09:10:00;;;;;;;0.00;0.00;;;;;;;4.51;100.00;98023.97;5093384;28;20020;-45
2023/12/02 09:12:26;;;;;;;1.30;1.27;;;;;;;4.62;100.00;98025.31;5093384;28;20046;-45
2023/12/02 09:15:28;;;;;;;0.50;0.50;;;;;;;4.74;100.00;98029.06;5094667;28;20398;-46
2023/12/02 09:18:08;;;;;;;0.20;0.20;;;;;;;4.62;100.00;98032.31;5094466;28;20036;-46
2023/12/02 09:20:45;;;;;;;0.68;0.68;;;;;;;4.44;100.00;98035.22;5093211;28;20120;-46
2023/12/02 09:23:13;;;;;;;0.20;0.20;;;;;;;4.36;100.00;98055.09;5093106;28;20099;-46
2023/12/02 09:25:41;;;;;;;0.13;0.13;;;;;;;4.17;100.00;98055.59;5093050;28;20023;-46
2023/12/02 09:28:06;;;;;;;1.25;1.15;;;;;;;4.08;100.00;98062.63;5094305;28;20031;-46
2023/12/02 09:30:33;;;;;;;0.20;0.20;;;;;;;4.13;100.00;98072.50;5092776;28;20040;-45
2023/12/02 09:33:00;;;;;;;1.58;1.35;;;;;;;4.01;100.00;98079.91;5094248;28;20016;-45
2023/12/02 09:35:26;;;;;;;2.38;1.85;;;;;;;4.03;100.00;98077.13;5076105;28;20111;-45
2023/12/02 09:37:52;;;;;;;0.77;0.77;;;;;;;4.17;100.00;98090.16;5092863;28;20028;-45
2023/12/02 09:40:23;;;;;;;0.20;0.20;;;;;;;4.16;100.00;98095.53;5094327;28;20039;-45
2023/12/02 09:42:54;;;;;;;0.20;0.20;;;;;;;4.06;100.00;98093.16;5094100;28;20028;-45
2023/12/02 09:45:36;;;;;;;0.30;0.30;;;;;;;4.06;100.00;98102.75;5092577;28;20031;-45
2023/12/02 09:48:23;;;;;;;5.82;0.95;;;;;;;4.04;100.00;98109.91;5092682;28;20418;-45
2023/12/02 09:51:04;;;;;;;0.10;0.10;;;;;;;4.04;100.00;98110.69;5092568;28;20024;-45
2023/12/02 09:53:33;;;;;;;0.00;0.00;;;;;;;3.99;100.00;98119.00;5092917;28;20028;-45
2023/12/02 09:56:01;;;;;;;0.40;0.40;;;;;;;3.84;100.00;98125.09;5093736;28;20055;-45
2023/12/02 09:58:32;;;;;;;0.00;0.00;;;;;;;3.83;100.00;98131.28;5092613;28;20069;-45
2023/12/02 10:01:08;;;;;;;1.90;1.75;;;;;;;3.89;100.00;98126.22;5093755;28;20059;-45
2023/12/02 10:03:46;;;;;;;0.45;0.45;;;;;;;3.77;100.00;98137.97;5093672;28;20020;-45
2023/12/02 10:06:42;;;;;;;0.45;0.45;;;;;;;3.64;100.00;98140.28;5092302;28;20036;-45
2023/12/02 10:09:35;;;;;;;0.50;0.47;;;;;;;3.55;100.00;98142.91;5093599;28;20019;-45
2023/12/02 10:12:26;;;;;;;0.10;0.10;;;;;;;3.54;100.00;98154.28;5093537;28;20035;-45
2023/12/02 10:15:03;;;;;;;0.10;0.10;;;;;;;3.47;100.00;98160.31;5093497;28;20081;-45
2023/12/02 10:17:35;;;;;;;0.10;0.10;;;;;;;3.45;100.00;98154.47;5076158;28;20024;-44
2023/12/02 10:20:12;;;;;;;0.90;0.90;;;;;;;3.50;100.00;98158.19;5092066;28;20042;-45
2023/12/02 10:22:45;;;;;;;0.52;0.47;;;;;;;3.44;100.00;98158.88;5093323;28;20032;-45
2023/12/02 10:25:29;;;;;;;0.10;0.10;;;;;;;3.56;100.00;98165.31;5091818;28;20512;-45
2023/12/02 10:28:02;;;;;;;0.00;0.00;;;;;;;3.48;100.00;98173.13;5091944;28;20077;-45
2023/12/02 10:30:34;;;;;;;0.00;0.00;;;;;;;3.45;100.00;98170.03;5093003;28;20048;-45
2023/12/02 10:33:10;;;;;;;0.00;0.00;;;;;;;3.60;100.00;98178.72;5093148;28;20032;-45
2023/12/02 10:35:42;;;;;;;0.00;0.00;;;;;;;3.51;100.00;98172.78;5093354;28;20443;-45
2023/12/02 10:38:20;;;;;;;0.00;0.00;;;;;;;3.41;100.00;98185.13;5091684;28;20124;-45
2023/12/02 10:40:51;;;;;;;0.00;0.00;;;;;;;3.57;100.00;98190.25;5092951;28;20032;-45
2023/12/02 10:43:29;;;;;;;0.00;0.00;;;;;;;3.60;100.00;98183.91;5091522;28;20035;-45
2023/12/02 10:45:55;;;;;;;0.10;0.10;;;;;;;3.68;100.00;98186.50;5092927;28;20052;-46
2023/12/02 10:48:21;;;;;;;0.00;0.00;;;;;;;3.70;100.00;98187.16;5092870;28;20028;-45
2023/12/02 10:50:49;;;;;;;0.45;0.45;;;;;;;3.74;100.00;98193.63;5091468;28;20027;-45
2023/12/02 10:53:22;;;;;;;0.10;0.10;;;;;;;3.89;100.00;98193.72;5092694;28;20512;-46
2023/12/02 10:55:55;;;;;;;0.40;0.40;;;;;;;4.09;100.00;98195.88;5092656;28;20039;-46
2023/12/02 10:58:22;;;;;;;0.10;0.10;;;;;;;4.30;100.00;98201.25;5092663;28;20114;-46
2023/12/02 11:00:55;;;;;;;0.13;0.13;;;;;;;4.56;100.00;98200.91;5092534;28;20073;-46
2023/12/02 11:03:32;;;;;;;0.00;0.00;;;;;;;4.78;100.00;98191.50;5092543;28;20443;-46
2023/12/02 11:06:07;;;;;;;0.10;0.10;;;;;;;4.87;100.00;98194.03;5092351;28;20031;-46
2023/12/02 11:08:45;;;;;;;0.00;0.00;;;;;;;5.06;100.00;98195.34;5092605;28;20089;-46
2023/12/02 11:11:20;;;;;;;0.10;0.10;;;;;;;5.08;100.00;98196.75;5092428;28;20420;-46
2023/12/02 11:13:49;;;;;;;0.00;0.00;;;;;;;5.14;100.00;98196.06;5092440;28;20032;-46
2023/12/02 11:16:41;;;;;;;0.50;0.50;;;;;;;5.10;100.00;98204.41;5074086;28;20024;-46
2023/12/02 11:19:34;;;;;;;0.30;0.30;;;;;;;5.25;100.00;98200.03;5091007;28;20036;-46
2023/12/02 11:22:40;;;;;;;0.40;0.40;;;;;;;5.17;100.00;98211.31;5090949;28;20115;-47
2023/12/02 11:25:15;;;;;;;0.00;0.00;;;;;;;5.20;100.00;98204.94;5092190;28;20043;-47
2023/12/02 11:27:59;;;;;;;3.25;1.35;;;;;;;5.26;100.00;98211.25;5090938;28;20107;-47
2023/12/02 11:30:37;;;;;;;0.08;0.08;;;;;;;5.42;100.00;98208.47;5091890;28;20040;-46
2023/12/02 11:33:22;;;;;;;0.52;0.52;;;;;;;5.50;100.00;98215.38;5090810;28;20466;-46
2023/12/02 11:36:16;;;;;;;0.32;0.32;;;;;;;5.22;100.00;98215.97;5092164;28;20028;-46
2023/12/02 11:38:54;;;;;;;0.00;0.00;;;;;;;5.08;100.00;98230.56;5092066;28;20050;-46